sensor_id;sensor_type;location;lat;lon;timestamp;P1;durP1;ratioP1;P2;durP2;ratioP2
9445;SDS011;4761;49.490;10.908;2023-06-14T00:00:13;5.30;;;3.85;;
9445;SDS011;4761;49.490;10.908;2023-06-14T00:02:39;4.25;;;3.35;;
9445;SDS011;4761;49.490;10.908;2023-06-14T00:05:06;4.43;;;3.20;;
9445;SDS011;4761;49.490;10.908;2023-06-14T00:07:35;4.25;;;3.30;;
9445;SDS011;4761;49.490;10.908;2023-06-14T00:10:03;4.80;;;3.63;;
9445;SDS011;4761;49.490;10.908;2023-06-14T00:12:29;4.80;;;3.70;;
9445;SDS011;4761;49.490;10.908;2023-06-14T00:14:55;3.75;;;3.35;;
9445;SDS011;4761;49.490;10.908;2023-06-14T00:17:20;3.83;;;3.13;;
9445;SDS011;4761;49.490;10.908;2023-06-14T00:19:46;3.88;;;3.40;;
9445;SDS011;4761;49.490;10.908;2023-06-14T00:22:12;4.72;;;3.65;;
9445;SDS011;4761;49.490;10.908;2023-06-14T00:24:37;4.32;;;3.28;;
9445;SDS011;4761;49.490;10.908;2023-06-14T00:27:03;4.13;;;3.30;;
9445;SDS011;4761;49.490;10.908;2023-06-14T00:29:29;3.88;;;3.40;;
9445;SDS011;4761;49.490;10.908;2023-06-14T00:31:54;4.18;;;3.28;;
9445;SDS011;4761;49.490;10.908;2023-06-14T00:34:20;4.15;;;3.30;;
9445;SDS011;4761;49.490;10.908;2023-06-14T00:36:45;4.03;;;3.40;;
9445;SDS011;4761;49.490;10.908;2023-06-14T00:39:11;6.00;;;3.80;;
9445;SDS011;4761;49.490;10.908;2023-06-14T00:41:37;3.47;;;2.90;;
9445;SDS011;4761;49.490;10.908;2023-06-14T00:44:02;3.40;;;3.10;;
9445;SDS011;4761;49.490;10.908;2023-06-14T00:46:29;3.78;;;3.15;;
9445;SDS011;4761;49.490;10.908;2023-06-14T00:48:55;3.45;;;3.10;;
9445;SDS011;4761;49.490;10.908;2023-06-14T00:51:21;3.50;;;3.20;;
9445;SDS011;4761;49.490;10.908;2023-06-14T00:53:47;3.97;;;3.17;;
9445;SDS011;4761;49.490;10.908;2023-06-14T00:56:13;4.00;;;3.15;;
9445;SDS011;4761;49.490;10.908;2023-06-14T00:58:39;3.75;;;3.10;;
9445;SDS011;4761;49.490;10.908;2023-06-14T01:01:06;3.38;;;3.08;;
9445;SDS011;4761;49.490;10.908;2023-06-14T01:03:32;3.40;;;3.10;;
9445;SDS011;4761;49.490;10.908;2023-06-14T01:09:08;3.28;;;2.97;;
9445;SDS011;4761;49.490;10.908;2023-06-14T01:11:47;2.85;;;2.63;;
9445;SDS011;4761;49.490;10.908;2023-06-14T01:14:19;6.85;;;3.15;;
9445;SDS011;4761;49.490;10.908;2023-06-14T01:16:46;3.45;;;3.15;;
9445;SDS011;4761;49.490;10.908;2023-06-14T01:19:12;3.50;;;3.20;;
9445;SDS011;4761;49.490;10.908;2023-06-14T01:21:38;3.22;;;2.92;;
9445;SDS011;4761;49.490;10.908;2023-06-14T01:24:07;3.20;;;2.90;;
9445;SDS011;4761;49.490;10.908;2023-06-14T01:26:33;3.63;;;2.97;;
9445;SDS011;4761;49.490;10.908;2023-06-14T01:29:02;3.53;;;3.10;;
9445;SDS011;4761;49.490;10.908;2023-06-14T01:31:28;3.38;;;3.08;;
9445;SDS011;4761;49.490;10.908;2023-06-14T01:33:54;3.42;;;2.95;;
9445;SDS011;4761;49.490;10.908;2023-06-14T01:36:20;2.78;;;2.58;;
9445;SDS011;4761;49.490;10.908;2023-06-14T01:38:47;3.70;;;2.80;;
9445;SDS011;4761;49.490;10.908;2023-06-14T01:41:15;3.67;;;3.20;;
9445;SDS011;4761;49.490;10.908;2023-06-14T01:43:42;3.25;;;2.95;;
9445;SDS011;4761;49.490;10.908;2023-06-14T01:46:09;3.42;;;2.97;;
9445;SDS011;4761;49.490;10.908;2023-06-14T01:48:35;3.45;;;2.95;;
9445;SDS011;4761;49.490;10.908;2023-06-14T01:51:01;3.67;;;3.10;;
9445;SDS011;4761;49.490;10.908;2023-06-14T01:53:26;3.75;;;2.95;;
9445;SDS011;4761;49.490;10.908;2023-06-14T01:55:52;3.80;;;3.10;;
9445;SDS011;4761;49.490;10.908;2023-06-14T01:58:19;3.72;;;3.10;;
9445;SDS011;4761;49.490;10.908;2023-06-14T02:00:44;3.33;;;3.03;;
9445;SDS011;4761;49.490;10.908;2023-06-14T02:03:10;3.50;;;3.20;;
9445;SDS011;4761;49.490;10.908;2023-06-14T02:05:36;3.10;;;2.70;;
9445;SDS011;4761;49.490;10.908;2023-06-14T02:08:04;2.88;;;2.63;;
9445;SDS011;4761;49.490;10.908;2023-06-14T02:10:30;3.30;;;2.92;;
9445;SDS011;4761;49.490;10.908;2023-06-14T02:12:55;3.13;;;2.80;;
9445;SDS011;4761;49.490;10.908;2023-06-14T02:15:21;3.38;;;3.08;;
9445;SDS011;4761;49.490;10.908;2023-06-14T02:17:46;3.10;;;2.90;;
9445;SDS011;4761;49.490;10.908;2023-06-14T02:20:12;3.33;;;3.00;;
9445;SDS011;4761;49.490;10.908;2023-06-14T02:22:38;2.85;;;2.65;;
9445;SDS011;4761;49.490;10.908;2023-06-14T02:25:04;3.15;;;2.85;;
9445;SDS011;4761;49.490;10.908;2023-06-14T02:27:30;2.90;;;2.70;;
9445;SDS011;4761;49.490;10.908;2023-06-14T02:29:56;2.90;;;2.70;;
9445;SDS011;4761;49.490;10.908;2023-06-14T02:32:21;3.30;;;2.83;;
9445;SDS011;4761;49.490;10.908;2023-06-14T02:34:47;2.92;;;2.72;;
9445;SDS011;4761;49.490;10.908;2023-06-14T02:37:15;2.63;;;2.42;;
9445;SDS011;4761;49.490;10.908;2023-06-14T02:39:40;2.95;;;2.72;;
9445;SDS011;4761;49.490;10.908;2023-06-14T02:42:06;3.05;;;2.75;;
9445;SDS011;4761;49.490;10.908;2023-06-14T02:44:32;2.92;;;2.60;;
9445;SDS011;4761;49.490;10.908;2023-06-14T02:46:58;2.85;;;2.65;;
9445;SDS011;4761;49.490;10.908;2023-06-14T02:49:25;3.25;;;2.88;;
9445;SDS011;4761;49.490;10.908;2023-06-14T02:51:51;3.65;;;2.88;;
9445;SDS011;4761;49.490;10.908;2023-06-14T02:54:16;3.28;;;2.97;;
9445;SDS011;4761;49.490;10.908;2023-06-14T02:56:43;3.00;;;2.70;;
9445;SDS011;4761;49.490;10.908;2023-06-14T02:59:09;3.10;;;2.80;;
9445;SDS011;4761;49.490;10.908;2023-06-14T03:01:34;2.95;;;2.75;;
9445;SDS011;4761;49.490;10.908;2023-06-14T03:04:01;2.90;;;2.70;;
9445;SDS011;4761;49.490;10.908;2023-06-14T03:06:28;3.20;;;2.97;;
9445;SDS011;4761;49.490;10.908;2023-06-14T03:08:57;3.05;;;2.85;;
9445;SDS011;4761;49.490;10.908;2023-06-14T03:11:25;2.80;;;2.60;;
9445;SDS011;4761;49.490;10.908;2023-06-14T03:13:51;2.78;;;2.58;;
9445;SDS011;4761;49.490;10.908;2023-06-14T03:16:17;3.10;;;2.80;;
9445;SDS011;4761;49.490;10.908;2023-06-14T03:18:46;4.68;;;2.85;;
9445;SDS011;4761;49.490;10.908;2023-06-14T03:21:16;2.60;;;2.40;;
9445;SDS011;4761;49.490;10.908;2023-06-14T03:23:43;3.00;;;2.70;;
9445;SDS011;4761;49.490;10.908;2023-06-14T03:26:09;2.95;;;2.75;;
9445;SDS011;4761;49.490;10.908;2023-06-14T03:28:37;2.70;;;2.50;;
9445;SDS011;4761;49.490;10.908;2023-06-14T03:31:03;2.88;;;2.55;;
9445;SDS011;4761;49.490;10.908;2023-06-14T03:33:29;3.58;;;2.80;;
9445;SDS011;4761;49.490;10.908;2023-06-14T03:35:54;2.83;;;2.63;;
9445;SDS011;4761;49.490;10.908;2023-06-14T03:38:21;2.75;;;2.55;;
9445;SDS011;4761;49.490;10.908;2023-06-14T03:40:46;3.35;;;2.90;;
9445;SDS011;4761;49.490;10.908;2023-06-14T03:43:12;3.00;;;2.80;;
9445;SDS011;4761;49.490;10.908;2023-06-14T03:45:38;2.80;;;2.60;;
9445;SDS011;4761;49.490;10.908;2023-06-14T03:48:03;2.90;;;2.70;;
9445;SDS011;4761;49.490;10.908;2023-06-14T03:50:31;3.05;;;2.78;;
9445;SDS011;4761;49.490;10.908;2023-06-14T03:52:57;3.05;;;2.65;;
9445;SDS011;4761;49.490;10.908;2023-06-14T03:55:23;3.15;;;2.85;;
9445;SDS011;4761;49.490;10.908;2023-06-14T03:57:50;2.50;;;2.30;;
9445;SDS011;4761;49.490;10.908;2023-06-14T04:00:16;3.15;;;2.90;;
9445;SDS011;4761;49.490;10.908;2023-06-14T04:02:43;4.38;;;3.17;;
9445;SDS011;4761;49.490;10.908;2023-06-14T04:05:09;2.92;;;2.72;;
9445;SDS011;4761;49.490;10.908;2023-06-14T04:07:35;2.75;;;2.55;;
9445;SDS011;4761;49.490;10.908;2023-06-14T04:10:10;3.20;;;2.67;;
9445;SDS011;4761;49.490;10.908;2023-06-14T04:12:36;2.97;;;2.78;;
9445;SDS011;4761;49.490;10.908;2023-06-14T04:15:02;2.95;;;2.67;;
9445;SDS011;4761;49.490;10.908;2023-06-14T04:17:28;3.58;;;2.97;;
9445;SDS011;4761;49.490;10.908;2023-06-14T04:19:54;3.20;;;2.90;;
9445;SDS011;4761;49.490;10.908;2023-06-14T04:22:20;5.63;;;3.50;;
9445;SDS011;4761;49.490;10.908;2023-06-14T04:24:45;4.10;;;2.90;;
9445;SDS011;4761;49.490;10.908;2023-06-14T04:27:11;4.50;;;3.60;;
9445;SDS011;4761;49.490;10.908;2023-06-14T04:29:36;4.28;;;3.50;;
9445;SDS011;4761;49.490;10.908;2023-06-14T04:32:02;4.57;;;3.50;;
9445;SDS011;4761;49.490;10.908;2023-06-14T04:34:28;3.60;;;3.30;;
9445;SDS011;4761;49.490;10.908;2023-06-14T04:36:59;5.18;;;4.00;;
9445;SDS011;4761;49.490;10.908;2023-06-14T04:39:26;3.72;;;3.42;;
9445;SDS011;4761;49.490;10.908;2023-06-14T04:41:52;4.18;;;3.20;;
9445;SDS011;4761;49.490;10.908;2023-06-14T04:44:22;4.28;;;3.80;;
9445;SDS011;4761;49.490;10.908;2023-06-14T04:46:55;4.22;;;3.67;;
9445;SDS011;4761;49.490;10.908;2023-06-14T04:49:21;4.25;;;3.25;;
9445;SDS011;4761;49.490;10.908;2023-06-14T04:51:48;3.95;;;3.45;;
9445;SDS011;4761;49.490;10.908;2023-06-14T04:54:22;4.72;;;3.58;;
9445;SDS011;4761;49.490;10.908;2023-06-14T04:56:49;4.20;;;3.38;;
9445;SDS011;4761;49.490;10.908;2023-06-14T04:59:15;3.88;;;3.20;;
9445;SDS011;4761;49.490;10.908;2023-06-14T05:01:42;4.43;;;3.55;;
9445;SDS011;4761;49.490;10.908;2023-06-14T05:04:12;4.20;;;3.47;;
9445;SDS011;4761;49.490;10.908;2023-06-14T05:06:38;4.00;;;3.53;;
9445;SDS011;4761;49.490;10.908;2023-06-14T05:09:03;4.10;;;3.33;;
9445;SDS011;4761;49.490;10.908;2023-06-14T05:11:29;4.43;;;3.30;;
9445;SDS011;4761;49.490;10.908;2023-06-14T05:13:54;3.80;;;3.20;;
9445;SDS011;4761;49.490;10.908;2023-06-14T05:16:20;3.53;;;3.22;;
9445;SDS011;4761;49.490;10.908;2023-06-14T05:18:48;3.85;;;3.47;;
9445;SDS011;4761;49.490;10.908;2023-06-14T05:21:14;4.63;;;3.47;;
9445;SDS011;4761;49.490;10.908;2023-06-14T05:23:42;3.67;;;3.20;;
9445;SDS011;4761;49.490;10.908;2023-06-14T05:26:09;3.30;;;3.00;;
9445;SDS011;4761;49.490;10.908;2023-06-14T05:28:35;3.90;;;3.22;;
9445;SDS011;4761;49.490;10.908;2023-06-14T05:31:01;4.80;;;3.55;;
9445;SDS011;4761;49.490;10.908;2023-06-14T05:33:26;3.78;;;3.22;;
9445;SDS011;4761;49.490;10.908;2023-06-14T05:35:52;3.58;;;3.08;;
9445;SDS011;4761;49.490;10.908;2023-06-14T05:38:17;3.42;;;3.13;;
9445;SDS011;4761;49.490;10.908;2023-06-14T05:40:43;3.80;;;3.25;;
9445;SDS011;4761;49.490;10.908;2023-06-14T05:43:08;4.40;;;2.83;;
9445;SDS011;4761;49.490;10.908;2023-06-14T05:45:34;3.33;;;3.03;;
9445;SDS011;4761;49.490;10.908;2023-06-14T05:47:59;3.33;;;3.03;;
9445;SDS011;4761;49.490;10.908;2023-06-14T05:50:25;5.55;;;3.17;;
9445;SDS011;4761;49.490;10.908;2023-06-14T05:52:50;3.75;;;2.88;;
9445;SDS011;4761;49.490;10.908;2023-06-14T05:55:16;2.85;;;2.60;;
9445;SDS011;4761;49.490;10.908;2023-06-14T05:57:42;2.95;;;2.72;;
9445;SDS011;4761;49.490;10.908;2023-06-14T06:00:08;3.05;;;2.75;;
9445;SDS011;4761;49.490;10.908;2023-06-14T06:02:35;3.83;;;3.10;;
9445;SDS011;4761;49.490;10.908;2023-06-14T06:05:01;3.83;;;2.92;;
9445;SDS011;4761;49.490;10.908;2023-06-14T06:07:27;4.32;;;3.20;;
9445;SDS011;4761;49.490;10.908;2023-06-14T06:09:53;2.95;;;2.67;;
9445;SDS011;4761;49.490;10.908;2023-06-14T06:12:18;3.13;;;2.75;;
9445;SDS011;4761;49.490;10.908;2023-06-14T06:14:44;3.05;;;2.70;;
9445;SDS011;4761;49.490;10.908;2023-06-14T06:17:09;3.28;;;2.88;;
9445;SDS011;4761;49.490;10.908;2023-06-14T06:19:35;3.00;;;2.70;;
9445;SDS011;4761;49.490;10.908;2023-06-14T06:22:00;3.13;;;2.78;;
9445;SDS011;4761;49.490;10.908;2023-06-14T06:24:26;3.88;;;2.70;;
9445;SDS011;4761;49.490;10.908;2023-06-14T06:26:52;2.90;;;2.70;;
9445;SDS011;4761;49.490;10.908;2023-06-14T06:29:17;3.33;;;2.80;;
9445;SDS011;4761;49.490;10.908;2023-06-14T06:31:43;2.50;;;2.30;;
9445;SDS011;4761;49.490;10.908;2023-06-14T06:34:08;2.90;;;2.60;;
9445;SDS011;4761;49.490;10.908;2023-06-14T06:36:34;2.85;;;2.63;;
9445;SDS011;4761;49.490;10.908;2023-06-14T06:39:00;2.65;;;2.40;;
9445;SDS011;4761;49.490;10.908;2023-06-14T06:41:25;3.50;;;2.50;;
9445;SDS011;4761;49.490;10.908;2023-06-14T06:43:51;2.60;;;2.40;;
9445;SDS011;4761;49.490;10.908;2023-06-14T06:46:17;3.10;;;2.70;;
9445;SDS011;4761;49.490;10.908;2023-06-14T06:48:43;2.80;;;2.60;;
9445;SDS011;4761;49.490;10.908;2023-06-14T06:51:09;2.55;;;2.30;;
9445;SDS011;4761;49.490;10.908;2023-06-14T06:53:35;2.88;;;2.35;;
9445;SDS011;4761;49.490;10.908;2023-06-14T06:56:00;3.70;;;2.40;;
9445;SDS011;4761;49.490;10.908;2023-06-14T06:58:26;2.70;;;2.50;;
9445;SDS011;4761;49.490;10.908;2023-06-14T07:00:52;3.20;;;2.10;;
9445;SDS011;4761;49.490;10.908;2023-06-14T07:03:18;2.40;;;2.20;;
9445;SDS011;4761;49.490;10.908;2023-06-14T07:05:44;3.20;;;2.50;;
9445;SDS011;4761;49.490;10.908;2023-06-14T07:08:10;2.42;;;2.22;;
9445;SDS011;4761;49.490;10.908;2023-06-14T07:10:35;2.50;;;2.30;;
9445;SDS011;4761;49.490;10.908;2023-06-14T07:13:02;4.07;;;2.20;;
9445;SDS011;4761;49.490;10.908;2023-06-14T07:15:28;2.63;;;2.42;;
9445;SDS011;4761;49.490;10.908;2023-06-14T07:17:54;2.70;;;2.22;;
9445;SDS011;4761;49.490;10.908;2023-06-14T07:20:24;3.95;;;2.50;;
9445;SDS011;4761;49.490;10.908;2023-06-14T07:22:50;2.55;;;2.35;;
9445;SDS011;4761;49.490;10.908;2023-06-14T07:25:16;2.30;;;2.10;;
9445;SDS011;4761;49.490;10.908;2023-06-14T07:27:45;3.00;;;2.30;;
9445;SDS011;4761;49.490;10.908;2023-06-14T07:30:11;3.03;;;2.28;;
9445;SDS011;4761;49.490;10.908;2023-06-14T07:32:36;2.60;;;2.25;;
9445;SDS011;4761;49.490;10.908;2023-06-14T07:35:02;2.40;;;2.20;;
9445;SDS011;4761;49.490;10.908;2023-06-14T07:37:28;2.38;;;2.15;;
9445;SDS011;4761;49.490;10.908;2023-06-14T07:39:54;3.13;;;2.28;;
9445;SDS011;4761;49.490;10.908;2023-06-14T07:42:19;3.72;;;2.13;;
9445;SDS011;4761;49.490;10.908;2023-06-14T07:44:45;3.25;;;2.63;;
9445;SDS011;4761;49.490;10.908;2023-06-14T07:47:11;2.75;;;2.17;;
9445;SDS011;4761;49.490;10.908;2023-06-14T07:49:36;2.10;;;1.90;;
9445;SDS011;4761;49.490;10.908;2023-06-14T07:52:02;2.88;;;1.90;;
9445;SDS011;4761;49.490;10.908;2023-06-14T07:54:29;2.65;;;2.28;;
9445;SDS011;4761;49.490;10.908;2023-06-14T07:56:56;2.50;;;2.30;;
9445;SDS011;4761;49.490;10.908;2023-06-14T07:59:23;2.30;;;2.10;;
9445;SDS011;4761;49.490;10.908;2023-06-14T08:01:48;2.10;;;1.90;;
9445;SDS011;4761;49.490;10.908;2023-06-14T08:04:14;3.47;;;2.00;;
9445;SDS011;4761;49.490;10.908;2023-06-14T08:06:41;2.58;;;2.10;;
9445;SDS011;4761;49.490;10.908;2023-06-14T08:09:09;2.75;;;2.00;;
9445;SDS011;4761;49.490;10.908;2023-06-14T08:11:36;2.38;;;2.17;;
9445;SDS011;4761;49.490;10.908;2023-06-14T08:14:01;2.17;;;1.98;;
9445;SDS011;4761;49.490;10.908;2023-06-14T08:16:27;1.95;;;1.65;;
9445;SDS011;4761;49.490;10.908;2023-06-14T08:18:52;2.92;;;2.50;;
9445;SDS011;4761;49.490;10.908;2023-06-14T08:21:18;2.33;;;2.13;;
9445;SDS011;4761;49.490;10.908;2023-06-14T08:23:44;2.17;;;1.98;;
9445;SDS011;4761;49.490;10.908;2023-06-14T08:26:09;2.10;;;1.90;;
9445;SDS011;4761;49.490;10.908;2023-06-14T08:28:35;2.47;;;2.28;;
9445;SDS011;4761;49.490;10.908;2023-06-14T08:31:01;3.55;;;2.00;;
9445;SDS011;4761;49.490;10.908;2023-06-14T08:33:27;2.35;;;2.10;;
9445;SDS011;4761;49.490;10.908;2023-06-14T08:35:52;2.28;;;2.00;;
9445;SDS011;4761;49.490;10.908;2023-06-14T08:38:18;2.00;;;1.90;;
9445;SDS011;4761;49.490;10.908;2023-06-14T08:40:43;2.10;;;2.00;;
9445;SDS011;4761;49.490;10.908;2023-06-14T08:43:12;2.20;;;2.00;;
9445;SDS011;4761;49.490;10.908;2023-06-14T08:45:38;2.40;;;2.20;;
9445;SDS011;4761;49.490;10.908;2023-06-14T08:48:04;2.80;;;2.08;;
9445;SDS011;4761;49.490;10.908;2023-06-14T08:50:32;2.30;;;2.00;;
9445;SDS011;4761;49.490;10.908;2023-06-14T08:52:59;1.90;;;1.80;;
9445;SDS011;4761;49.490;10.908;2023-06-14T08:55:28;2.40;;;2.20;;
9445;SDS011;4761;49.490;10.908;2023-06-14T08:57:55;2.47;;;2.22;;
9445;SDS011;4761;49.490;10.908;2023-06-14T09:00:25;2.65;;;2.10;;
9445;SDS011;4761;49.490;10.908;2023-06-14T09:02:52;2.28;;;1.92;;
9445;SDS011;4761;49.490;10.908;2023-06-14T09:05:23;3.05;;;1.88;;
9445;SDS011;4761;49.490;10.908;2023-06-14T09:07:49;2.65;;;1.98;;
9445;SDS011;4761;49.490;10.908;2023-06-14T09:10:15;2.65;;;2.08;;
9445;SDS011;4761;49.490;10.908;2023-06-14T09:12:42;2.33;;;2.13;;
9445;SDS011;4761;49.490;10.908;2023-06-14T09:15:08;2.30;;;2.10;;
9445;SDS011;4761;49.490;10.908;2023-06-14T09:17:34;2.00;;;1.90;;
9445;SDS011;4761;49.490;10.908;2023-06-14T09:20:01;4.25;;;2.10;;
9445;SDS011;4761;49.490;10.908;2023-06-14T09:22:34;2.10;;;1.90;;
9445;SDS011;4761;49.490;10.908;2023-06-14T09:25:00;3.25;;;2.20;;
9445;SDS011;4761;49.490;10.908;2023-06-14T09:27:26;1.92;;;1.83;;
9445;SDS011;4761;49.490;10.908;2023-06-14T09:29:52;3.42;;;2.20;;
9445;SDS011;4761;49.490;10.908;2023-06-14T09:32:18;2.00;;;1.90;;
9445;SDS011;4761;49.490;10.908;2023-06-14T09:34:45;2.03;;;1.88;;
9445;SDS011;4761;49.490;10.908;2023-06-14T09:37:11;2.78;;;2.40;;
9445;SDS011;4761;49.490;10.908;2023-06-14T09:39:48;3.13;;;2.22;;
9445;SDS011;4761;49.490;10.908;2023-06-14T09:42:18;3.17;;;2.10;;
9445;SDS011;4761;49.490;10.908;2023-06-14T09:44:47;2.30;;;2.10;;
9445;SDS011;4761;49.490;10.908;2023-06-14T09:47:14;3.28;;;2.00;;
9445;SDS011;4761;49.490;10.908;2023-06-14T09:49:41;2.00;;;1.90;;
9445;SDS011;4761;49.490;10.908;2023-06-14T09:52:08;3.25;;;2.38;;
9445;SDS011;4761;49.490;10.908;2023-06-14T09:54:37;2.28;;;2.03;;
9445;SDS011;4761;49.490;10.908;2023-06-14T09:57:11;2.20;;;2.00;;
9445;SDS011;4761;49.490;10.908;2023-06-14T09:59:40;2.15;;;1.95;;
9445;SDS011;4761;49.490;10.908;2023-06-14T10:02:26;2.78;;;2.40;;
9445;SDS011;4761;49.490;10.908;2023-06-14T10:07:32;2.45;;;1.98;;
9445;SDS011;4761;49.490;10.908;2023-06-14T10:10:18;2.20;;;2.00;;
9445;SDS011;4761;49.490;10.908;2023-06-14T10:12:44;2.50;;;1.98;;
9445;SDS011;4761;49.490;10.908;2023-06-14T10:15:11;2.30;;;2.10;;
9445;SDS011;4761;49.490;10.908;2023-06-14T10:17:47;2.40;;;2.20;;
9445;SDS011;4761;49.490;10.908;2023-06-14T10:23:08;2.00;;;1.90;;
9445;SDS011;4761;49.490;10.908;2023-06-14T10:25:38;3.30;;;2.30;;
9445;SDS011;4761;49.490;10.908;2023-06-14T10:31:06;2.40;;;2.20;;
9445;SDS011;4761;49.490;10.908;2023-06-14T10:33:33;2.15;;;2.05;;
9445;SDS011;4761;49.490;10.908;2023-06-14T10:41:28;2.50;;;2.30;;
9445;SDS011;4761;49.490;10.908;2023-06-14T10:47:00;2.17;;;1.98;;
9445;SDS011;4761;49.490;10.908;2023-06-14T10:52:10;2.65;;;2.20;;
9445;SDS011;4761;49.490;10.908;2023-06-14T10:57:21;2.30;;;2.10;;
9445;SDS011;4761;49.490;10.908;2023-06-14T10:59:47;2.00;;;1.88;;
9445;SDS011;4761;49.490;10.908;2023-06-14T11:04:47;2.00;;;1.80;;
9445;SDS011;4761;49.490;10.908;2023-06-14T11:12:42;1.88;;;1.77;;
9445;SDS011;4761;49.490;10.908;2023-06-14T11:15:12;2.25;;;2.05;;
9445;SDS011;4761;49.490;10.908;2023-06-14T11:17:38;2.30;;;2.10;;
9445;SDS011;4761;49.490;10.908;2023-06-14T11:20:07;2.00;;;1.80;;
9445;SDS011;4761;49.490;10.908;2023-06-14T11:22:41;2.20;;;2.00;;
9445;SDS011;4761;49.490;10.908;2023-06-14T11:25:11;2.20;;;2.00;;
9445;SDS011;4761;49.490;10.908;2023-06-14T11:27:37;1.95;;;1.85;;
9445;SDS011;4761;49.490;10.908;2023-06-14T11:30:02;1.98;;;1.88;;
9445;SDS011;4761;49.490;10.908;2023-06-14T11:32:30;2.05;;;1.90;;
9445;SDS011;4761;49.490;10.908;2023-06-14T11:34:56;2.08;;;1.92;;
9445;SDS011;4761;49.490;10.908;2023-06-14T11:37:23;1.88;;;1.77;;
9445;SDS011;4761;49.490;10.908;2023-06-14T11:39:51;1.90;;;1.80;;
9445;SDS011;4761;49.490;10.908;2023-06-14T11:42:16;2.10;;;1.90;;
9445;SDS011;4761;49.490;10.908;2023-06-14T11:44:45;2.38;;;2.17;;
9445;SDS011;4761;49.490;10.908;2023-06-14T11:47:11;2.03;;;1.88;;
9445;SDS011;4761;49.490;10.908;2023-06-14T11:49:37;2.20;;;2.00;;
9445;SDS011;4761;49.490;10.908;2023-06-14T11:52:03;2.40;;;2.20;;
9445;SDS011;4761;49.490;10.908;2023-06-14T11:54:30;2.00;;;1.83;;
9445;SDS011;4761;49.490;10.908;2023-06-14T11:56:56;2.20;;;2.00;;
9445;SDS011;4761;49.490;10.908;2023-06-14T11:59:22;2.95;;;1.80;;
9445;SDS011;4761;49.490;10.908;2023-06-14T12:01:48;2.05;;;1.88;;
9445;SDS011;4761;49.490;10.908;2023-06-14T12:04:14;1.70;;;1.60;;
9445;SDS011;4761;49.490;10.908;2023-06-14T12:06:48;2.90;;;1.77;;
9445;SDS011;4761;49.490;10.908;2023-06-14T12:09:14;1.90;;;1.80;;
9445;SDS011;4761;49.490;10.908;2023-06-14T12:11:42;2.00;;;1.90;;
9445;SDS011;4761;49.490;10.908;2023-06-14T12:14:08;2.08;;;1.98;;
9445;SDS011;4761;49.490;10.908;2023-06-14T12:16:35;1.90;;;1.80;;
9445;SDS011;4761;49.490;10.908;2023-06-14T12:19:09;1.80;;;1.67;;
9445;SDS011;4761;49.490;10.908;2023-06-14T12:21:36;2.22;;;2.03;;
9445;SDS011;4761;49.490;10.908;2023-06-14T12:24:03;1.88;;;1.77;;
9445;SDS011;4761;49.490;10.908;2023-06-14T12:26:31;2.97;;;1.83;;
9445;SDS011;4761;49.490;10.908;2023-06-14T12:28:57;3.55;;;2.25;;
9445;SDS011;4761;49.490;10.908;2023-06-14T12:31:23;1.80;;;1.70;;
9445;SDS011;4761;49.490;10.908;2023-06-14T12:33:49;2.22;;;2.03;;
9445;SDS011;4761;49.490;10.908;2023-06-14T12:36:15;2.10;;;1.90;;
9445;SDS011;4761;49.490;10.908;2023-06-14T12:38:41;3.30;;;1.77;;
9445;SDS011;4761;49.490;10.908;2023-06-14T12:41:07;2.00;;;1.90;;
9445;SDS011;4761;49.490;10.908;2023-06-14T12:43:33;2.30;;;2.08;;
9445;SDS011;4761;49.490;10.908;2023-06-14T12:45:59;2.08;;;1.90;;
9445;SDS011;4761;49.490;10.908;2023-06-14T12:48:25;1.83;;;1.73;;
9445;SDS011;4761;49.490;10.908;2023-06-14T12:50:52;2.20;;;2.00;;
9445;SDS011;4761;49.490;10.908;2023-06-14T12:53:18;2.30;;;2.10;;
9445;SDS011;4761;49.490;10.908;2023-06-14T12:55:43;1.60;;;1.50;;
9445;SDS011;4761;49.490;10.908;2023-06-14T12:58:09;1.90;;;1.80;;
9445;SDS011;4761;49.490;10.908;2023-06-14T13:00:37;1.88;;;1.77;;
9445;SDS011;4761;49.490;10.908;2023-06-14T13:03:03;1.60;;;1.50;;
9445;SDS011;4761;49.490;10.908;2023-06-14T13:05:28;1.73;;;1.63;;
9445;SDS011;4761;49.490;10.908;2023-06-14T13:07:56;1.77;;;1.67;;
9445;SDS011;4761;49.490;10.908;2023-06-14T13:10:21;1.85;;;1.75;;
9445;SDS011;4761;49.490;10.908;2023-06-14T13:12:47;1.80;;;1.70;;
9445;SDS011;4761;49.490;10.908;2023-06-14T13:15:12;1.70;;;1.60;;
9445;SDS011;4761;49.490;10.908;2023-06-14T13:17:38;2.03;;;1.90;;
9445;SDS011;4761;49.490;10.908;2023-06-14T13:20:07;2.00;;;1.90;;
9445;SDS011;4761;49.490;10.908;2023-06-14T13:22:33;2.05;;;1.92;;
9445;SDS011;4761;49.490;10.908;2023-06-14T13:25:00;1.63;;;1.52;;
9445;SDS011;4761;49.490;10.908;2023-06-14T13:27:26;1.92;;;1.83;;
9445;SDS011;4761;49.490;10.908;2023-06-14T13:29:52;1.85;;;1.75;;
9445;SDS011;4761;49.490;10.908;2023-06-14T13:32:18;2.03;;;1.90;;
9445;SDS011;4761;49.490;10.908;2023-06-14T13:34:43;1.88;;;1.77;;
9445;SDS011;4761;49.490;10.908;2023-06-14T13:37:09;1.80;;;1.70;;
9445;SDS011;4761;49.490;10.908;2023-06-14T13:39:34;2.22;;;2.05;;
9445;SDS011;4761;49.490;10.908;2023-06-14T13:42:02;2.05;;;1.95;;
9445;SDS011;4761;49.490;10.908;2023-06-14T13:44:28;1.70;;;1.60;;
9445;SDS011;4761;49.490;10.908;2023-06-14T13:46:53;2.10;;;2.00;;
9445;SDS011;4761;49.490;10.908;2023-06-14T13:49:19;1.70;;;1.60;;
9445;SDS011;4761;49.490;10.908;2023-06-14T13:51:44;2.10;;;1.90;;
9445;SDS011;4761;49.490;10.908;2023-06-14T13:54:12;1.80;;;1.70;;
9445;SDS011;4761;49.490;10.908;2023-06-14T13:56:39;2.03;;;1.70;;
9445;SDS011;4761;49.490;10.908;2023-06-14T13:59:05;1.92;;;1.83;;
9445;SDS011;4761;49.490;10.908;2023-06-14T14:01:30;1.90;;;1.80;;
9445;SDS011;4761;49.490;10.908;2023-06-14T14:03:56;2.35;;;1.92;;
9445;SDS011;4761;49.490;10.908;2023-06-14T14:06:21;2.28;;;2.00;;
9445;SDS011;4761;49.490;10.908;2023-06-14T14:08:47;1.80;;;1.70;;
9445;SDS011;4761;49.490;10.908;2023-06-14T14:11:13;1.80;;;1.70;;
9445;SDS011;4761;49.490;10.908;2023-06-14T14:13:38;1.70;;;1.60;;
9445;SDS011;4761;49.490;10.908;2023-06-14T14:16:05;1.90;;;1.80;;
9445;SDS011;4761;49.490;10.908;2023-06-14T14:18:31;1.77;;;1.67;;
9445;SDS011;4761;49.490;10.908;2023-06-14T14:20:57;1.98;;;1.77;;
9445;SDS011;4761;49.490;10.908;2023-06-14T14:23:23;2.10;;;1.90;;
9445;SDS011;4761;49.490;10.908;2023-06-14T14:25:49;1.80;;;1.70;;
9445;SDS011;4761;49.490;10.908;2023-06-14T14:28:14;2.10;;;1.90;;
9445;SDS011;4761;49.490;10.908;2023-06-14T14:30:45;1.80;;;1.70;;
9445;SDS011;4761;49.490;10.908;2023-06-14T14:33:12;1.70;;;1.60;;
9445;SDS011;4761;49.490;10.908;2023-06-14T14:35:41;1.88;;;1.77;;
9445;SDS011;4761;49.490;10.908;2023-06-14T14:38:07;2.28;;;1.60;;
9445;SDS011;4761;49.490;10.908;2023-06-14T14:40:32;1.70;;;1.60;;
9445;SDS011;4761;49.490;10.908;2023-06-14T14:42:58;1.90;;;1.70;;
9445;SDS011;4761;49.490;10.908;2023-06-14T14:45:23;1.60;;;1.50;;
9445;SDS011;4761;49.490;10.908;2023-06-14T14:47:49;1.77;;;1.67;;
9445;SDS011;4761;49.490;10.908;2023-06-14T14:50:15;1.90;;;1.80;;
9445;SDS011;4761;49.490;10.908;2023-06-14T14:52:41;2.75;;;1.90;;
9445;SDS011;4761;49.490;10.908;2023-06-14T14:55:07;1.80;;;1.70;;
9445;SDS011;4761;49.490;10.908;2023-06-14T14:57:33;1.70;;;1.60;;
9445;SDS011;4761;49.490;10.908;2023-06-14T14:59:58;1.90;;;1.80;;
9445;SDS011;4761;49.490;10.908;2023-06-14T15:02:24;1.60;;;1.50;;
9445;SDS011;4761;49.490;10.908;2023-06-14T15:04:49;1.65;;;1.55;;
9445;SDS011;4761;49.490;10.908;2023-06-14T15:07:15;1.77;;;1.67;;
9445;SDS011;4761;49.490;10.908;2023-06-14T15:09:40;1.67;;;1.58;;
9445;SDS011;4761;49.490;10.908;2023-06-14T15:12:07;1.98;;;1.88;;
9445;SDS011;4761;49.490;10.908;2023-06-14T15:14:33;1.70;;;1.60;;
9445;SDS011;4761;49.490;10.908;2023-06-14T15:16:58;1.73;;;1.63;;
9445;SDS011;4761;49.490;10.908;2023-06-14T15:19:26;1.50;;;1.40;;
9445;SDS011;4761;49.490;10.908;2023-06-14T15:21:52;1.50;;;1.40;;
9445;SDS011;4761;49.490;10.908;2023-06-14T15:24:17;1.60;;;1.50;;
9445;SDS011;4761;49.490;10.908;2023-06-14T15:26:43;2.35;;;1.60;;
9445;SDS011;4761;49.490;10.908;2023-06-14T15:29:08;1.65;;;1.55;;